createdAt,value
2023-05-15T00:00:49.276Z,12.70
2023-05-15T00:03:17.723Z,12.70
2023-05-15T00:05:45.841Z,12.70
2023-05-15T00:08:13.834Z,12.60
2023-05-15T00:10:45.007Z,12.70
2023-05-15T00:13:21.931Z,12.60
2023-05-15T00:15:51.510Z,12.60
2023-05-15T00:18:19.605Z,12.60
2023-05-15T00:20:47.598Z,12.60
2023-05-15T00:23:15.586Z,12.60
2023-05-15T00:25:43.663Z,12.60
2023-05-15T00:28:11.612Z,12.60
2023-05-15T00:30:39.564Z,12.60
2023-05-15T00:33:09.221Z,12.60
2023-05-15T00:35:37.254Z,12.50
2023-05-15T00:38:05.218Z,12.50
2023-05-15T00:40:34.554Z,12.60
2023-05-15T00:43:03.751Z,12.50
2023-05-15T00:45:32.128Z,12.50
2023-05-15T00:48:01.941Z,12.50
2023-05-15T00:50:33.796Z,12.60
2023-05-15T00:53:02.494Z,12.50
2023-05-15T00:55:30.605Z,12.60
2023-05-15T00:57:59.283Z,12.50
2023-05-15T01:00:27.438Z,12.50
2023-05-15T01:02:55.839Z,12.50
2023-05-15T01:05:24.020Z,12.50
2023-05-15T01:08:06.270Z,12.50
2023-05-15T01:10:36.718Z,12.50
2023-05-15T01:13:05.988Z,12.50
2023-05-15T01:15:34.195Z,12.50
2023-05-15T01:18:03.386Z,12.50
2023-05-15T01:20:35.355Z,12.50
2023-05-15T01:23:14.502Z,12.50
2023-05-15T01:26:09.112Z,12.50
2023-05-15T01:28:43.489Z,12.50
2023-05-15T01:31:17.119Z,12.50
2023-05-15T01:33:48.100Z,12.50
2023-05-15T01:36:22.692Z,12.50
2023-05-15T01:38:55.713Z,12.50
2023-05-15T01:41:28.200Z,12.50
2023-05-15T01:44:03.194Z,12.40
2023-05-15T01:46:32.674Z,12.40
2023-05-15T01:49:02.990Z,12.40
2023-05-15T01:51:32.959Z,12.40
2023-05-15T01:54:01.434Z,12.40
2023-05-15T01:56:30.486Z,12.40
2023-05-15T01:59:01.401Z,12.40
2023-05-15T02:01:30.430Z,12.30
2023-05-15T02:03:58.929Z,12.30
2023-05-15T02:06:27.126Z,12.30
2023-05-15T02:08:56.025Z,12.30
2023-05-15T02:11:23.995Z,12.30
2023-05-15T02:13:52.830Z,12.40
2023-05-15T02:16:22.221Z,12.40
2023-05-15T02:18:52.853Z,12.40
2023-05-15T02:21:20.931Z,12.30
2023-05-15T02:23:49.028Z,12.30
2023-05-15T02:26:38.634Z,12.30
2023-05-15T02:29:14.858Z,12.30
2023-05-15T02:31:53.752Z,12.30
2023-05-15T02:34:32.837Z,12.30
2023-05-15T02:37:02.960Z,12.30
2023-05-15T02:39:32.632Z,12.30
2023-05-15T02:42:02.491Z,12.30
2023-05-15T02:44:32.068Z,12.30
2023-05-15T02:47:03.510Z,12.30
2023-05-15T02:49:31.548Z,12.30
2023-05-15T02:51:59.516Z,12.40
2023-05-15T02:54:27.450Z,12.30
2023-05-15T02:56:55.494Z,12.30
2023-05-15T02:59:23.784Z,12.30
2023-05-15T03:01:52.139Z,12.30
2023-05-15T03:04:22.268Z,12.30
2023-05-15T03:06:50.215Z,12.30
2023-05-15T03:09:18.169Z,12.30
2023-05-15T03:11:47.427Z,12.30
2023-05-15T03:14:15.656Z,12.30
2023-05-15T03:16:43.671Z,12.30
2023-05-15T03:19:11.799Z,12.30
2023-05-15T03:21:41.240Z,12.30
2023-05-15T03:24:09.297Z,12.10
2023-05-15T03:26:37.558Z,11.90
2023-05-15T03:29:05.540Z,11.80
2023-05-15T03:31:33.626Z,11.70
2023-05-15T03:34:01.588Z,11.80
2023-05-15T03:36:29.577Z,11.80
2023-05-15T03:38:58.874Z,11.90
2023-05-15T03:41:27.936Z,11.90
2023-05-15T03:43:56.008Z,11.80
2023-05-15T03:46:23.984Z,11.60
2023-05-15T03:48:51.932Z,11.70
2023-05-15T03:51:19.928Z,11.70
2023-05-15T03:53:47.964Z,11.80
2023-05-15T03:56:18.036Z,11.80
2023-05-15T03:58:46.076Z,11.70
2023-05-15T04:01:14.017Z,11.80
2023-05-15T04:03:41.985Z,11.70
2023-05-15T04:06:10.100Z,11.70
2023-05-15T04:08:39.659Z,11.80
2023-05-15T04:11:08.510Z,11.90
2023-05-15T04:13:37.865Z,11.90
2023-05-15T04:16:07.276Z,11.80
2023-05-15T04:18:35.436Z,11.70
2023-05-15T04:21:03.765Z,11.60
2023-05-15T04:23:31.730Z,11.60
2023-05-15T04:25:59.858Z,11.70
2023-05-15T04:28:29.935Z,11.80
2023-05-15T04:30:59.856Z,11.70
2023-05-15T04:33:27.975Z,11.80
2023-05-15T04:35:55.966Z,11.90
2023-05-15T04:38:23.998Z,12.00
2023-05-15T04:40:52.229Z,12.00
2023-05-15T04:43:20.157Z,12.10
2023-05-15T04:45:48.329Z,12.10
2023-05-15T04:48:19.174Z,12.20
2023-05-15T04:50:47.137Z,12.30
2023-05-15T04:53:15.511Z,12.30
2023-05-15T04:55:43.436Z,12.30
2023-05-15T04:58:11.378Z,12.20
2023-05-15T05:00:40.118Z,12.20
2023-05-15T05:03:08.129Z,12.20
2023-05-15T05:05:37.477Z,12.20
2023-05-15T05:08:05.496Z,12.20
2023-05-15T05:10:33.468Z,12.20
2023-05-15T05:13:01.501Z,12.20
2023-05-15T05:15:29.541Z,12.20
2023-05-15T05:17:57.562Z,12.30
2023-05-15T05:20:25.686Z,12.30
2023-05-15T05:22:55.261Z,12.30
2023-05-15T05:25:23.429Z,12.30
2023-05-15T05:27:51.954Z,12.30
2023-05-15T05:30:20.173Z,12.30
2023-05-15T05:32:48.197Z,12.30
2023-05-15T05:35:16.206Z,12.30
2023-05-15T05:37:44.292Z,12.30
2023-05-15T05:40:14.383Z,12.30
2023-05-15T05:42:42.676Z,12.30
2023-05-15T05:45:11.779Z,12.30
2023-05-15T05:47:39.777Z,12.30
2023-05-15T05:50:09.244Z,12.10
2023-05-15T05:52:37.282Z,12.10
2023-05-15T05:55:05.721Z,12.00
2023-05-15T05:57:35.211Z,12.10
2023-05-15T06:00:06.454Z,12.10
2023-05-15T06:02:34.508Z,12.20
2023-05-15T06:05:02.708Z,12.30
2023-05-15T06:07:30.789Z,12.30
2023-05-15T06:09:58.921Z,12.30
2023-05-15T06:12:27.967Z,12.20
2023-05-15T06:14:57.405Z,12.30
2023-05-15T06:17:25.696Z,12.30
2023-05-15T06:19:53.675Z,12.40
2023-05-15T06:22:21.931Z,12.40
2023-05-15T06:24:49.940Z,12.50
2023-05-15T06:27:17.954Z,12.50
2023-05-15T06:29:45.918Z,12.50
2023-05-15T06:32:15.243Z,12.50
2023-05-15T06:34:43.306Z,12.50
2023-05-15T06:37:11.325Z,12.50
2023-05-15T06:39:39.394Z,12.50
2023-05-15T06:42:08.154Z,12.40
2023-05-15T06:44:36.387Z,12.30
2023-05-15T06:47:04.506Z,12.30
2023-05-15T06:49:33.911Z,12.40
2023-05-15T06:52:01.894Z,12.60
2023-05-15T06:54:29.906Z,12.70
2023-05-15T06:56:57.892Z,12.70
2023-05-15T06:59:26.144Z,12.60
2023-05-15T07:01:55.982Z,12.60
2023-05-15T07:04:24.220Z,12.40
2023-05-15T07:06:53.573Z,12.50
2023-05-15T07:09:21.554Z,12.70
2023-05-15T07:11:49.528Z,12.70
2023-05-15T07:14:17.495Z,12.90
2023-05-15T07:16:47.291Z,13.00
2023-05-15T07:19:18.644Z,13.10
2023-05-15T07:21:46.649Z,13.10
2023-05-15T07:24:16.008Z,13.10
2023-05-15T07:26:57.597Z,13.20
2023-05-15T07:29:26.999Z,13.30
2023-05-15T07:31:55.372Z,13.30
2023-05-15T07:34:23.670Z,13.30
2023-05-15T07:36:51.702Z,13.30
2023-05-15T07:39:21.135Z,13.20
2023-05-15T07:41:49.120Z,13.30
2023-05-15T07:44:17.066Z,13.40
2023-05-15T07:46:45.692Z,13.40
2023-05-15T07:49:13.834Z,13.40
2023-05-15T07:51:42.755Z,13.50
2023-05-15T07:54:11.073Z,13.50
2023-05-15T07:56:40.434Z,13.60
2023-05-15T07:59:08.600Z,13.70
2023-05-15T08:01:36.754Z,13.70
2023-05-15T08:04:08.693Z,13.80
2023-05-15T08:06:38.209Z,13.80
2023-05-15T08:09:06.288Z,13.90
2023-05-15T08:11:34.248Z,14.00
2023-05-15T08:14:03.670Z,14.00
2023-05-15T08:16:31.769Z,14.10
2023-05-15T08:19:03.670Z,14.20
2023-05-15T08:21:32.396Z,14.20
2023-05-15T08:24:00.966Z,14.30
2023-05-15T08:26:29.068Z,14.40
2023-05-15T08:28:57.049Z,14.40
2023-05-15T08:31:26.424Z,14.50
2023-05-15T08:33:54.406Z,14.60
2023-05-15T08:36:22.485Z,14.70
2023-05-15T08:38:50.466Z,14.70
2023-05-15T08:41:39.323Z,14.90
2023-05-15T08:44:10.008Z,15.10
2023-05-15T08:46:40.022Z,15.20
2023-05-15T08:49:15.806Z,15.30
2023-05-15T08:51:44.245Z,15.40
2023-05-15T08:54:12.773Z,15.50
2023-05-15T08:56:41.055Z,15.60
2023-05-15T08:59:09.319Z,15.70
2023-05-15T09:01:38.985Z,15.80
2023-05-15T09:04:07.190Z,15.90
2023-05-15T09:06:35.615Z,15.90
2023-05-15T09:09:05.394Z,16.00
2023-05-15T09:11:34.040Z,16.10
2023-05-15T09:14:02.070Z,16.20
2023-05-15T09:16:30.149Z,16.30
2023-05-15T09:19:01.335Z,16.40
2023-05-15T09:21:31.589Z,16.50
2023-05-15T09:24:17.837Z,16.60
2023-05-15T09:26:47.197Z,16.70
2023-05-15T09:29:18.863Z,16.70
2023-05-15T09:31:48.362Z,16.70
2023-05-15T09:34:18.052Z,16.80
2023-05-15T09:36:46.216Z,16.90
2023-05-15T09:39:14.327Z,16.90
2023-05-15T09:41:44.847Z,17.00
2023-05-15T09:44:25.794Z,17.10
2023-05-15T09:46:54.420Z,17.10
2023-05-15T09:49:24.034Z,17.10
2023-05-15T09:51:52.139Z,17.00
2023-05-15T09:54:20.850Z,17.10
2023-05-15T09:56:49.431Z,17.10
2023-05-15T09:59:19.142Z,17.10
2023-05-15T10:01:49.103Z,17.20
2023-05-15T10:04:17.541Z,17.40
2023-05-15T10:06:48.344Z,17.50
2023-05-15T10:09:17.124Z,17.60
2023-05-15T10:11:46.410Z,17.70
2023-05-15T10:14:15.148Z,17.70
2023-05-15T10:16:43.172Z,17.70
2023-05-15T10:19:12.495Z,17.70
2023-05-15T10:21:41.815Z,17.70
2023-05-15T10:24:12.612Z,17.70
2023-05-15T10:26:41.889Z,17.80
2023-05-15T10:29:11.689Z,17.80
2023-05-15T10:31:40.659Z,17.90
2023-05-15T10:34:10.275Z,18.00
2023-05-15T10:36:39.412Z,18.00
2023-05-15T10:39:10.534Z,18.00
2023-05-15T10:41:41.031Z,17.90
2023-05-15T10:44:09.638Z,18.00
2023-05-15T10:46:38.527Z,18.10
2023-05-15T10:49:07.903Z,18.20
2023-05-15T10:51:40.522Z,18.30
2023-05-15T10:54:11.468Z,18.30
2023-05-15T10:56:40.812Z,18.30
2023-05-15T10:59:10.267Z,18.30
2023-05-15T11:01:39.342Z,18.30
2023-05-15T11:04:09.565Z,18.30
2023-05-15T11:06:38.360Z,18.40
2023-05-15T11:09:39.471Z,18.40
2023-05-15T11:12:10.104Z,18.60
2023-05-15T11:14:40.341Z,18.60
2023-05-15T11:17:09.813Z,18.60
2023-05-15T11:19:41.099Z,18.60
2023-05-15T11:22:19.881Z,18.60
2023-05-15T11:24:54.103Z,18.60
2023-05-15T11:27:24.125Z,18.70
2023-05-15T11:30:09.367Z,18.70
2023-05-15T11:32:45.125Z,18.80
2023-05-15T11:35:14.018Z,18.90
2023-05-15T11:37:48.343Z,18.90
2023-05-15T11:40:21.320Z,19.00
2023-05-15T11:43:20.534Z,19.10
2023-05-15T11:45:50.119Z,19.10
2023-05-15T11:48:18.864Z,19.20
2023-05-15T11:50:47.433Z,19.20
2023-05-15T11:53:16.102Z,19.30
2023-05-15T11:55:46.428Z,19.30
2023-05-15T11:58:15.844Z,19.30
2023-05-15T12:00:44.714Z,19.40
2023-05-15T12:03:16.220Z,19.50
2023-05-15T12:05:57.718Z,19.60
2023-05-15T12:08:31.723Z,19.60
2023-05-15T12:11:01.311Z,19.60
2023-05-15T12:13:29.868Z,19.60
2023-05-15T12:15:58.444Z,19.60
2023-05-15T12:18:26.684Z,19.70
2023-05-15T12:20:55.497Z,19.70
2023-05-15T12:23:26.681Z,19.70
2023-05-15T12:26:00.559Z,19.70
2023-05-15T12:28:31.209Z,19.80
2023-05-15T12:30:59.427Z,19.80
2023-05-15T12:33:27.577Z,19.80
2023-05-15T12:36:00.858Z,19.80
2023-05-15T12:38:30.537Z,19.80
2023-05-15T12:40:58.761Z,19.90
2023-05-15T12:43:27.219Z,19.90
2023-05-15T12:45:57.424Z,20.00
2023-05-15T12:48:31.004Z,20.00
2023-05-15T12:51:06.996Z,20.10
2023-05-15T12:53:35.217Z,20.10
2023-05-15T12:56:04.713Z,20.10
2023-05-15T12:58:33.026Z,20.10
2023-05-15T13:01:03.511Z,20.10
2023-05-15T13:03:32.465Z,20.10
2023-05-15T13:06:02.953Z,20.20
2023-05-15T13:08:31.492Z,20.20
2023-05-15T13:11:00.840Z,20.20
2023-05-15T13:13:43.775Z,20.30
2023-05-15T13:16:21.553Z,20.30
2023-05-15T13:18:49.818Z,20.30
2023-05-15T13:21:18.428Z,20.40
2023-05-15T13:23:46.539Z,20.60
2023-05-15T13:26:14.658Z,20.60
2023-05-15T13:28:42.611Z,20.70
2023-05-15T13:31:10.864Z,20.70
2023-05-15T13:33:40.307Z,20.70
2023-05-15T13:36:08.756Z,20.60
2023-05-15T13:38:36.860Z,20.70
2023-05-15T13:41:05.717Z,20.70
2023-05-15T13:43:33.658Z,20.60
2023-05-15T13:46:01.648Z,20.50
2023-05-15T13:48:29.657Z,20.50
2023-05-15T13:50:58.982Z,20.50
2023-05-15T13:53:27.233Z,20.50
2023-05-15T13:55:55.296Z,20.60
2023-05-15T13:58:26.502Z,20.70
2023-05-15T14:00:54.626Z,20.80
2023-05-15T14:03:22.703Z,20.80
2023-05-15T14:05:51.268Z,21.00
2023-05-15T14:08:21.159Z,21.10
2023-05-15T14:10:49.131Z,21.20
2023-05-15T14:13:17.066Z,21.40
2023-05-15T14:15:45.115Z,21.50
2023-05-15T14:18:13.148Z,21.70
2023-05-15T14:20:41.136Z,21.90
2023-05-15T14:23:09.183Z,22.20
2023-05-15T14:25:38.514Z,22.80
2023-05-15T14:28:06.514Z,22.70
2023-05-15T14:30:34.994Z,22.50
2023-05-15T14:33:03.090Z,22.20
2023-05-15T14:35:31.054Z,21.90
2023-05-15T14:37:58.988Z,21.60
2023-05-15T14:40:27.388Z,21.30
2023-05-15T14:42:56.803Z,21.20
2023-05-15T14:45:24.884Z,21.10
2023-05-15T14:47:53.101Z,21.30
2023-05-15T14:50:21.215Z,22.20
2023-05-15T14:52:49.158Z,23.70
2023-05-15T14:55:22.015Z,24.90
2023-05-15T14:57:50.318Z,26.40
2023-05-15T15:00:20.033Z,27.60
2023-05-15T15:02:48.150Z,28.40
2023-05-15T15:05:16.171Z,28.90
2023-05-15T15:08:02.313Z,29.10
2023-05-15T15:10:30.959Z,28.90
2023-05-15T15:12:59.220Z,28.90
2023-05-15T15:15:29.060Z,28.00
2023-05-15T15:17:58.061Z,28.00
2023-05-15T15:20:27.243Z,28.70
2023-05-15T15:22:55.725Z,28.90
2023-05-15T15:25:23.844Z,28.80
2023-05-15T15:27:52.103Z,28.60
2023-05-15T15:30:20.052Z,28.20
2023-05-15T15:32:49.638Z,27.90
2023-05-15T15:35:17.598Z,27.60
2023-05-15T15:37:45.786Z,27.00
2023-05-15T15:40:14.025Z,26.70
2023-05-15T15:42:41.993Z,26.40
2023-05-15T15:45:10.211Z,26.10
2023-05-15T15:47:38.240Z,25.80
2023-05-15T15:50:08.484Z,25.30
2023-05-15T15:52:36.748Z,25.00
2023-05-15T15:55:05.184Z,24.70
2023-05-15T15:57:34.179Z,24.50
2023-05-15T16:00:02.224Z,24.30
2023-05-15T16:02:30.408Z,24.20
2023-05-15T16:04:58.406Z,24.00
2023-05-15T16:07:27.756Z,23.50
2023-05-15T16:10:04.083Z,23.20
2023-05-15T16:12:39.996Z,22.70
2023-05-15T16:17:40.580Z,22.00
2023-05-15T16:20:10.130Z,21.70
2023-05-15T16:22:41.641Z,21.60
2023-05-15T16:25:10.185Z,21.50
2023-05-15T16:27:38.150Z,21.30
2023-05-15T16:30:06.901Z,21.30
2023-05-15T16:32:35.225Z,21.20
2023-05-15T16:35:03.336Z,21.10
2023-05-15T16:37:31.290Z,21.10
2023-05-15T16:40:00.790Z,21.00
2023-05-15T16:42:28.771Z,20.90
2023-05-15T16:44:56.937Z,20.90
2023-05-15T16:47:24.985Z,20.70
2023-05-15T16:49:52.972Z,20.50
2023-05-15T16:52:20.904Z,20.30
2023-05-15T16:54:48.998Z,20.20
2023-05-15T16:57:18.601Z,20.00
2023-05-15T16:59:46.576Z,20.00
2023-05-15T17:02:14.775Z,19.80
2023-05-15T17:04:42.885Z,19.80
2023-05-15T17:07:10.946Z,19.70
2023-05-15T17:09:40.615Z,19.60
2023-05-15T17:12:08.916Z,19.50
2023-05-15T17:14:38.370Z,19.50
2023-05-15T17:17:06.481Z,19.50
2023-05-15T17:19:35.069Z,19.40
2023-05-15T17:22:03.200Z,19.40
2023-05-15T17:24:42.659Z,19.30
2023-05-15T17:27:18.417Z,19.20
2023-05-15T17:29:47.986Z,19.10
2023-05-15T17:32:17.187Z,19.00
2023-05-15T17:34:45.505Z,19.00
2023-05-15T17:37:14.890Z,18.90
2023-05-15T17:39:43.130Z,18.80
2023-05-15T17:42:11.155Z,18.60
2023-05-15T17:44:39.353Z,18.60
2023-05-15T17:47:10.243Z,18.50
2023-05-15T17:49:38.877Z,18.40
2023-05-15T17:52:07.114Z,18.30
2023-05-15T17:54:35.267Z,18.30
2023-05-15T17:57:03.560Z,18.10
2023-05-15T17:59:31.939Z,18.20
2023-05-15T18:02:00.479Z,18.10
2023-05-15T18:04:29.967Z,18.00
2023-05-15T18:06:57.889Z,18.10
2023-05-15T18:09:26.023Z,18.00
2023-05-15T18:11:54.070Z,18.00
2023-05-15T18:14:22.016Z,17.90
2023-05-15T18:16:50.037Z,17.90
2023-05-15T18:19:18.263Z,17.90
2023-05-15T18:21:47.788Z,17.80
2023-05-15T18:24:15.781Z,17.80
2023-05-15T18:26:43.712Z,17.90
2023-05-15T18:29:11.702Z,17.80
2023-05-15T18:31:39.745Z,17.70
2023-05-15T18:34:07.883Z,17.60
2023-05-15T18:36:36.025Z,17.40
2023-05-15T18:39:05.464Z,17.30
2023-05-15T18:41:33.629Z,17.30
2023-05-15T18:44:01.645Z,17.20
2023-05-15T18:46:31.197Z,17.30
2023-05-15T18:48:59.761Z,17.20
2023-05-15T18:51:28.011Z,17.20
2023-05-15T18:53:56.029Z,17.10
2023-05-15T18:56:26.037Z,17.00
2023-05-15T18:58:55.383Z,17.00
2023-05-15T19:01:23.415Z,17.00
2023-05-15T19:03:51.495Z,16.80
2023-05-15T19:06:20.390Z,16.80
2023-05-15T19:08:49.262Z,16.80
2023-05-15T19:11:17.968Z,16.80
2023-05-15T19:13:47.281Z,16.70
2023-05-15T19:16:15.284Z,16.80
2023-05-15T19:18:43.430Z,16.60
2023-05-15T19:21:15.703Z,16.30
2023-05-15T19:23:43.727Z,15.90
2023-05-15T19:26:11.716Z,15.70
2023-05-15T19:28:39.791Z,15.80
2023-05-15T19:31:20.249Z,15.70
2023-05-15T19:33:57.135Z,15.70
2023-05-15T19:36:25.115Z,15.80
2023-05-15T19:38:53.443Z,15.70
2023-05-15T19:41:21.724Z,15.70
2023-05-15T19:43:50.901Z,15.60
2023-05-15T19:46:20.621Z,15.50
2023-05-15T19:48:48.630Z,15.30
2023-05-15T19:51:16.598Z,15.30
2023-05-15T19:53:44.955Z,15.30
2023-05-15T19:56:13.805Z,15.10
2023-05-15T19:58:41.786Z,14.90
2023-05-15T20:01:09.789Z,15.00
2023-05-15T20:03:39.451Z,15.00
2023-05-15T20:06:07.522Z,14.90
2023-05-15T20:08:35.528Z,14.90
2023-05-15T20:11:03.490Z,14.90
2023-05-15T20:13:31.749Z,14.80
2023-05-15T20:16:03.804Z,15.00
2023-05-15T20:18:34.607Z,15.00
2023-05-15T20:21:04.449Z,15.00
2023-05-15T20:23:32.458Z,15.10
2023-05-15T20:26:00.482Z,15.20
2023-05-15T20:28:29.287Z,15.20
2023-05-15T20:30:58.406Z,15.30
2023-05-15T20:33:28.579Z,15.30
2023-05-15T20:35:56.978Z,15.40
2023-05-15T20:38:26.314Z,15.30
2023-05-15T20:40:54.311Z,15.30
2023-05-15T20:43:22.335Z,15.40
2023-05-15T20:45:50.643Z,15.30
2023-05-15T20:48:18.629Z,15.30
2023-05-15T20:50:46.611Z,15.40
2023-05-15T20:53:14.631Z,15.40
2023-05-15T20:55:44.012Z,15.40
2023-05-15T20:58:11.965Z,15.20
2023-05-15T21:00:40.099Z,15.30
2023-05-15T21:03:09.365Z,15.20
2023-05-15T21:05:37.451Z,15.20
2023-05-15T21:08:05.762Z,15.20
2023-05-15T21:10:33.729Z,15.10
2023-05-15T21:13:03.052Z,15.10
2023-05-15T21:15:31.047Z,15.10
2023-05-15T21:17:59.081Z,15.00
2023-05-15T21:20:27.645Z,14.90
2023-05-15T21:22:55.868Z,14.90
2023-05-15T21:25:23.790Z,14.80
2023-05-15T21:27:51.886Z,14.80
2023-05-15T21:30:21.417Z,14.80
2023-05-15T21:32:49.354Z,14.70
2023-05-15T21:35:17.452Z,14.70
2023-05-15T21:37:45.454Z,14.70
2023-05-15T21:40:14.256Z,14.70
2023-05-15T21:42:43.024Z,14.60
2023-05-15T21:45:11.376Z,14.60
2023-05-15T21:47:40.784Z,14.60
2023-05-15T21:50:09.394Z,14.60
2023-05-15T21:52:37.356Z,14.60
2023-05-15T21:55:05.902Z,14.60
2023-05-15T21:57:33.972Z,14.60
2023-05-15T22:00:02.441Z,14.50
2023-05-15T22:02:30.542Z,14.50
2023-05-15T22:04:59.886Z,14.50
2023-05-15T22:07:27.953Z,14.50
2023-05-15T22:09:56.445Z,14.50
2023-05-15T22:12:24.464Z,14.50
2023-05-15T22:14:59.118Z,14.50
2023-05-15T22:17:29.176Z,14.30
2023-05-15T22:20:07.368Z,14.30
2023-05-15T22:22:36.846Z,14.40
2023-05-15T22:25:05.411Z,14.30
2023-05-15T22:27:33.499Z,14.30
2023-05-15T22:30:01.471Z,14.30
2023-05-15T22:32:29.580Z,14.10
2023-05-15T22:34:58.918Z,14.00
2023-05-15T22:37:26.870Z,14.00
2023-05-15T22:39:54.834Z,14.10
2023-05-15T22:42:24.033Z,14.10
2023-05-15T22:44:52.160Z,14.10
2023-05-15T22:47:20.323Z,14.10
2023-05-15T22:49:50.224Z,14.10
2023-05-15T22:52:19.869Z,14.10
2023-05-15T22:54:47.841Z,13.90
2023-05-15T22:57:16.055Z,14.00
2023-05-15T22:59:44.519Z,14.00
2023-05-15T23:02:12.586Z,14.00
2023-05-15T23:04:40.533Z,14.00
2023-05-15T23:07:08.495Z,14.00
2023-05-15T23:09:37.798Z,13.90
2023-05-15T23:12:06.616Z,13.90
2023-05-15T23:14:34.813Z,13.80
2023-05-15T23:17:02.753Z,13.80
2023-05-15T23:19:31.308Z,13.80
2023-05-15T23:22:02.299Z,13.70
2023-05-15T23:24:30.621Z,13.70
2023-05-15T23:27:00.314Z,13.70
2023-05-15T23:29:28.281Z,13.70
2023-05-15T23:31:57.674Z,13.80
2023-05-15T23:34:25.681Z,13.80
2023-05-15T23:36:53.675Z,13.80
2023-05-15T23:39:21.644Z,13.80
2023-05-15T23:41:49.751Z,13.80
2023-05-15T23:44:19.204Z,13.80
2023-05-15T23:46:47.339Z,13.80
2023-05-15T23:49:15.679Z,13.80
2023-05-15T23:51:44.362Z,13.80
2023-05-15T23:54:12.688Z,13.80
2023-05-15T23:56:41.159Z,13.80
2023-05-15T23:59:09.139Z,13.80
